Time;durP1;ratioP1;P1;durP2;ratioP2;P2;SDS_P1;SDS_P2;PMS_P1;PMS_P2;Temp;Humidity;BMP_temperature;BMP_pressure;BME280_temperature;BME280_humidity;BME280_pressure;Samples;Min_cycle;Max_cycle;Signal;HPM_P1;HPM_P2
2022/01/07 00:00:20;;;;;;;35.28;15.98;;;;;;;;;;5093082;28;20479;-69
2022/01/07 00:02:50;;;;;;;31.92;15.10;;;;;;;;;;5093287;28;20032;-69
2022/01/07 00:05:16;;;;;;;;;;;;;;;;;;5093740;28;20062;-70
2022/01/07 00:07:42;;;;;;;34.80;16.30;;;;;;;;;;5093254;28;19908;-69
2022/01/07 00:10:08;;;;;;;34.28;16.23;;;;;;;;;;5093152;28;20451;-69
2022/01/07 00:12:35;;;;;;;32.42;15.98;;;;;;;;;;5093046;28;20362;-69
2022/01/07 00:15:01;;;;;;;30.58;14.15;;;;;;;;;;5075285;28;20043;-70
2022/01/07 00:17:26;;;;;;;25.15;11.98;;;;;;;;;;5093219;28;20032;-69
2022/01/07 00:19:52;;;;;;;36.25;16.42;;;;;;;;;;5093234;28;20055;-70
2022/01/07 00:22:17;;;;;;;33.75;15.00;;;;;;;;;;5074996;28;20028;-70
2022/01/07 00:24:43;;;;;;;26.75;13.57;;;;;;;;;;5074845;28;20050;-70
2022/01/07 00:27:08;;;;;;;27.35;14.10;;;;;;;;;;5074853;28;20039;-70
2022/01/07 00:29:34;;;;;;;33.15;15.95;;;;;;;;;;5075014;28;20043;-70
2022/01/07 00:31:59;;;;;;;40.05;19.30;;;;;;;;;;5092972;28;20466;-70
2022/01/07 00:34:25;;;;;;;54.35;25.27;;;;;;;;;;5092670;28;20032;-69
2022/01/07 00:36:50;;;;;;;72.65;31.20;;;;;;;;;;5092978;28;20090;-70
2022/01/07 00:39:16;;;;;;;96.43;37.92;;;;;;;;;;5092953;28;20040;-70
2022/01/07 00:41:41;;;;;;;61.97;26.73;;;;;;;;;;5092786;28;20032;-69
2022/01/07 00:44:07;;;;;;;36.50;17.60;;;;;;;;;;5074896;28;20028;-70
2022/01/07 00:46:32;;;;;;;31.85;16.33;;;;;;;;;;5092827;28;20020;-69
2022/01/07 00:48:58;;;;;;;31.00;15.13;;;;;;;;;;5092766;28;20079;-70
2022/01/07 00:51:23;;;;;;;42.80;22.60;;;;;;;;;;5092778;28;20115;-70
2022/01/07 00:53:49;;;;;;;32.67;15.40;;;;;;;;;;5092881;28;20416;-71
2022/01/07 00:56:14;;;;;;;38.47;17.35;;;;;;;;;;5095057;28;20493;-70
2022/01/07 00:58:40;;;;;;;36.92;17.50;;;;;;;;;;5096459;28;20044;-62
2022/01/07 01:01:05;;;;;;;35.50;17.63;;;;;;;;;;5078603;28;20024;-69
2022/01/07 01:03:31;;;;;;;35.63;16.20;;;;;;;;;;5096386;28;20044;-70
2022/01/07 01:05:58;;;;;;;29.63;14.40;;;;;;;;;;5096301;28;20382;-70
2022/01/07 01:08:25;;;;;;;30.17;14.25;;;;;;;;;;5061349;28;20040;-70
2022/01/07 01:10:51;;;;;;;33.33;13.95;;;;;;;;;;5096146;28;20036;-70
2022/01/07 01:13:17;;;;;;;30.75;14.00;;;;;;;;;;5096391;28;20032;-70
2022/01/07 01:15:43;;;;;;;29.55;14.65;;;;;;;;;;5096151;28;20047;-69
2022/01/07 01:18:08;;;;;;;36.00;14.75;;;;;;;;;;5096032;28;20444;-71
2022/01/07 01:20:35;;;;;;;36.53;15.77;;;;;;;;;;5096107;28;20020;-70
2022/01/07 01:23:00;;;;;;;37.78;15.18;;;;;;;;;;5095973;28;20048;-69
2022/01/07 01:25:25;;;;;;;42.95;15.93;;;;;;;;;;5096019;28;20069;-70
2022/01/07 01:27:51;;;;;;;49.45;20.85;;;;;;;;;;5095927;28;20501;-69
2022/01/07 01:30:17;;;;;;;47.42;21.60;;;;;;;;;;5095978;28;20169;-69
2022/01/07 01:32:44;;;;;;;47.95;22.15;;;;;;;;;;5095563;28;20036;-61
2022/01/07 01:35:10;;;;;;;51.45;23.58;;;;;;;;;;5095064;28;20028;-61
2022/01/07 01:37:36;;;;;;;48.63;20.63;;;;;;;;;;5095431;28;20055;-61
2022/01/07 01:40:02;;;;;;;44.08;18.45;;;;;;;;;;5095675;28;20036;-61
2022/01/07 01:42:27;;;;;;;43.58;18.20;;;;;;;;;;5095635;28;20040;-62
2022/01/07 01:44:53;;;;;;;36.25;16.50;;;;;;;;;;5077508;28;20036;-61
2022/01/07 01:47:18;;;;;;;45.05;19.42;;;;;;;;;;5095303;28;20047;-61
2022/01/07 01:49:44;;;;;;;40.42;18.77;;;;;;;;;;5077254;28;20035;-61
2022/01/07 01:52:09;;;;;;;46.17;21.10;;;;;;;;;;5077453;28;20033;-61
2022/01/07 01:54:35;;;;;;;42.95;21.15;;;;;;;;;;5095270;28;20028;-61
2022/01/07 01:57:02;;;;;;;43.10;20.08;;;;;;;;;;5095653;28;20036;-61
2022/01/07 01:59:28;;;;;;;41.42;18.92;;;;;;;;;;5095407;28;20455;-62
2022/01/07 02:01:54;;;;;;;38.58;17.02;;;;;;;;;;5095198;28;20040;-61
2022/01/07 02:04:20;;;;;;;44.53;19.13;;;;;;;;;;5095391;28;20096;-61
2022/01/07 02:06:47;;;;;;;42.78;18.40;;;;;;;;;;5094524;28;20050;-62
2022/01/07 02:09:12;;;;;;;45.60;17.48;;;;;;;;;;5095245;28;20027;-61
2022/01/07 02:11:38;;;;;;;68.38;25.33;;;;;;;;;;5095014;28;20394;-61
2022/01/07 02:14:03;;;;;;;83.82;31.98;;;;;;;;;;5094963;28;20032;-70
2022/01/07 02:16:29;;;;;;;123.20;51.20;;;;;;;;;;5094895;28;20040;-70
2022/01/07 02:18:54;;;;;;;98.97;47.38;;;;;;;;;;5095113;28;20120;-70
2022/01/07 02:21:21;;;;;;;143.82;79.40;;;;;;;;;;5095111;28;20375;-69
2022/01/07 02:23:46;;;;;;;51.70;28.40;;;;;;;;;;5095112;28;20375;-70
2022/01/07 02:26:12;;;;;;;53.45;26.25;;;;;;;;;;5094850;28;20143;-69
2022/01/07 02:28:38;;;;;;;39.88;20.15;;;;;;;;;;5094581;28;20085;-69
2022/01/07 02:31:04;;;;;;;35.45;18.70;;;;;;;;;;5094641;28;20032;-69
2022/01/07 02:33:29;;;;;;;36.20;16.83;;;;;;;;;;5094460;28;20031;-70
2022/01/07 02:35:55;;;;;;;32.60;16.70;;;;;;;;;;5094231;28;20048;-70
2022/01/07 02:38:20;;;;;;;32.90;15.50;;;;;;;;;;5094476;28;20586;-70
2022/01/07 02:40:46;;;;;;;34.70;15.35;;;;;;;;;;5094274;28;20085;-70
2022/01/07 02:43:11;;;;;;;31.17;15.63;;;;;;;;;;5094340;28;20048;-69
2022/01/07 02:45:37;;;;;;;33.65;17.23;;;;;;;;;;5076484;28;20051;-69
2022/01/07 02:48:03;;;;;;;31.90;16.48;;;;;;;;;;5094320;28;20040;-70
2022/01/07 02:50:30;;;;;;;32.33;15.10;;;;;;;;;;5094534;28;20114;-69
2022/01/07 02:52:56;;;;;;;29.90;16.05;;;;;;;;;;5094335;28;20028;-69
2022/01/07 02:55:22;;;;;;;31.77;15.68;;;;;;;;;;5093816;28;20096;-68
2022/01/07 02:57:48;;;;;;;29.35;13.93;;;;;;;;;;5094501;28;20016;-69
2022/01/07 03:00:14;;;;;;;27.48;14.23;;;;;;;;;;5094141;28;20122;-69
2022/01/07 03:02:40;;;;;;;30.92;13.35;;;;;;;;;;5076379;28;20141;-61
2022/01/07 03:05:06;;;;;;;30.60;15.15;;;;;;;;;;5094055;28;20048;-62
2022/01/07 03:07:33;;;;;;;35.75;18.67;;;;;;;;;;5075742;28;20028;-62
2022/01/07 03:09:58;;;;;;;35.80;18.48;;;;;;;;;;5094159;28;20032;-69
2022/01/07 03:12:25;;;;;;;31.08;14.85;;;;;;;;;;5094068;28;20443;-70
2022/01/07 03:14:50;;;;;;;28.27;13.43;;;;;;;;;;5093911;28;20036;-62
2022/01/07 03:17:16;;;;;;;24.83;12.60;;;;;;;;;;5093650;28;20402;-62
2022/01/07 03:19:41;;;;;;;29.63;13.75;;;;;;;;;;5093498;28;20440;-61
2022/01/07 03:22:07;;;;;;;27.30;13.43;;;;;;;;;;5094024;28;20043;-62
2022/01/07 03:24:33;;;;;;;25.80;12.73;;;;;;;;;;5094007;28;20040;-69
2022/01/07 03:26:59;;;;;;;26.63;13.40;;;;;;;;;;5093799;28;20038;-71
2022/01/07 03:29:24;;;;;;;29.33;13.57;;;;;;;;;;5093879;28;20044;-70
2022/01/07 03:31:50;;;;;;;25.80;12.95;;;;;;;;;;5093936;28;20032;-62
2022/01/07 03:34:16;;;;;;;24.88;12.95;;;;;;;;;;5093274;28;20032;-66
2022/01/07 03:36:41;;;;;;;26.58;12.82;;;;;;;;;;5075595;28;20040;-69
2022/01/07 03:39:08;;;;;;;25.83;12.43;;;;;;;;;;5075311;28;20074;-69
2022/01/07 03:41:34;;;;;;;24.75;12.00;;;;;;;;;;5093519;28;20128;-69
2022/01/07 03:43:59;;;;;;;22.20;12.23;;;;;;;;;;5093521;28;20442;-61
2022/01/07 03:46:25;;;;;;;26.50;13.05;;;;;;;;;;5075290;28;20032;-61
2022/01/07 03:48:50;;;;;;;25.80;12.65;;;;;;;;;;5093222;28;20078;-62
2022/01/07 03:51:16;;;;;;;28.95;12.25;;;;;;;;;;5093356;28;20055;-61
2022/01/07 03:53:42;;;;;;;25.98;12.07;;;;;;;;;;5093653;28;20040;-62
2022/01/07 03:56:10;;;;;;;24.85;11.77;;;;;;;;;;5093682;28;20050;-62
2022/01/07 03:58:35;;;;;;;24.75;12.32;;;;;;;;;;5093549;28;20493;-62
2022/01/07 04:01:01;;;;;;;25.38;12.48;;;;;;;;;;5093448;28;20043;-62
2022/01/07 04:03:26;;;;;;;26.52;12.55;;;;;;;;;;5058480;28;20047;-62
2022/01/07 04:05:52;;;;;;;26.02;12.38;;;;;;;;;;5075212;28;20389;-62
2022/01/07 04:08:17;;;;;;;27.42;13.27;;;;;;;;;;5093480;28;20055;-62
2022/01/07 04:10:42;;;;;;;28.83;13.40;;;;;;;;;;5093367;28;20039;-62
2022/01/07 04:13:08;;;;;;;28.65;13.63;;;;;;;;;;5093309;28;20040;-62
2022/01/07 04:15:34;;;;;;;26.55;13.65;;;;;;;;;;5093174;28;20028;-62
2022/01/07 04:18:00;;;;;;;25.45;13.52;;;;;;;;;;5093096;28;20102;-63
2022/01/07 04:20:30;;;;;;;28.63;13.50;;;;;;;;;;5093111;28;20028;-63
2022/01/07 04:22:56;;;;;;;27.95;13.70;;;;;;;;;;5074936;28;20060;-62
2022/01/07 04:25:23;;;;;;;25.95;13.63;;;;;;;;;;5093161;28;20052;-63
2022/01/07 04:27:49;;;;;;;37.20;17.52;;;;;;;;;;5093026;28;20032;-62
2022/01/07 04:30:15;;;;;;;26.20;15.35;;;;;;;;;;5093852;28;20118;-61
2022/01/07 04:32:42;;;;;;;35.55;15.65;;;;;;;;;;5079015;28;20442;-61
2022/01/07 04:35:08;;;;;;;28.40;15.73;;;;;;;;;;5096534;28;20351;-61
2022/01/07 04:37:33;;;;;;;34.80;17.73;;;;;;;;;;5096624;28;20101;-61
2022/01/07 04:39:59;;;;;;;28.45;15.65;;;;;;;;;;5096795;28;20043;-61
2022/01/07 04:42:24;;;;;;;35.35;17.75;;;;;;;;;;5096288;28;20390;-64
2022/01/07 04:44:50;;;;;;;31.42;16.10;;;;;;;;;;5096956;28;20178;-62
2022/01/07 04:47:15;;;;;;;29.67;15.77;;;;;;;;;;5096579;28;20170;-62
2022/01/07 04:49:41;;;;;;;32.67;17.67;;;;;;;;;;5096737;28;20039;-62
2022/01/07 04:52:27;;;;;;;24.10;13.70;;;;;;;;;;5096471;28;20032;-63
2022/01/07 04:55:07;;;;;;;37.13;18.40;;;;;;;;;;5062364;28;20176;-63
2022/01/07 04:57:45;;;;;;;35.75;18.80;;;;;;;;;;5096225;28;20128;-63
2022/01/07 05:00:44;;;;;;;34.40;20.40;;;;;;;;;;5063618;28;20036;-73
2022/01/07 05:03:30;;;;;;;33.55;17.38;;;;;;;;;;5062211;28;20574;-64
2022/01/07 05:06:31;;;;;;;27.20;13.18;;;;;;;;;;5061732;28;20036;-71
2022/01/07 05:08:47;;;;;;;27.55;13.48;;;;;;;;;;5077790;28;20522;-72
2022/01/07 05:11:12;;;;;;;26.55;13.13;;;;;;;;;;5077848;28;20020;-72
2022/01/07 05:13:37;;;;;;;31.65;18.38;;;;;;;;;;5096104;28;20485;-63
2022/01/07 05:16:03;;;;;;;29.65;16.35;;;;;;;;;;5095941;28;20480;-71
2022/01/07 05:18:29;;;;;;;33.88;18.70;;;;;;;;;;5096235;28;20488;-71
2022/01/07 05:20:54;;;;;;;35.63;17.88;;;;;;;;;;5096227;28;20028;-71
2022/01/07 05:23:20;;;;;;;32.50;16.85;;;;;;;;;;5077796;28;20482;-63
2022/01/07 05:25:45;;;;;;;29.60;15.05;;;;;;;;;;5096253;28;20039;-63
2022/01/07 05:28:11;;;;;;;24.17;13.45;;;;;;;;;;5095999;28;20040;-63
2022/01/07 05:30:36;;;;;;;26.00;14.43;;;;;;;;;;5096015;28;20454;-63
2022/01/07 05:33:02;;;;;;;29.52;15.65;;;;;;;;;;5095774;28;20036;-71
2022/01/07 05:35:29;;;;;;;22.30;12.52;;;;;;;;;;5077132;28;20043;-71
2022/01/07 05:37:54;;;;;;;29.25;15.52;;;;;;;;;;5095481;28;20389;-71
2022/01/07 05:40:20;;;;;;;24.27;14.30;;;;;;;;;;5095773;28;20040;-71
2022/01/07 05:42:45;;;;;;;25.20;13.80;;;;;;;;;;5095697;28;20101;-72
2022/01/07 05:45:11;;;;;;;24.65;12.98;;;;;;;;;;5095748;28;20036;-63
2022/01/07 05:47:36;;;;;;;25.23;12.95;;;;;;;;;;5095388;28;20460;-63
2022/01/07 05:50:02;;;;;;;23.52;13.18;;;;;;;;;;5095387;28;20028;-63
2022/01/07 05:52:28;;;;;;;25.05;13.57;;;;;;;;;;5095443;28;20032;-63
2022/01/07 05:54:53;;;;;;;24.33;12.95;;;;;;;;;;5095245;28;20021;-63
2022/01/07 05:57:18;;;;;;;28.08;14.70;;;;;;;;;;5095085;28;20112;-63
2022/01/07 05:59:44;;;;;;;30.98;17.88;;;;;;;;;;5095082;28;20042;-63
2022/01/07 06:02:09;;;;;;;36.00;18.40;;;;;;;;;;5095392;28;20032;-63
2022/01/07 06:04:35;;;;;;;35.83;19.90;;;;;;;;;;5095152;28;20060;-63
2022/01/07 06:07:01;;;;;;;35.17;18.65;;;;;;;;;;5094993;28;20043;-63
2022/01/07 06:09:27;;;;;;;30.08;16.17;;;;;;;;;;5094998;28;20028;-64
2022/01/07 06:11:52;;;;;;;28.40;15.13;;;;;;;;;;5076916;28;20028;-64
2022/01/07 06:14:18;;;;;;;31.15;16.42;;;;;;;;;;5077130;28;20106;-72
2022/01/07 06:16:43;;;;;;;27.83;14.07;;;;;;;;;;5095045;28;20093;-72
2022/01/07 06:19:09;;;;;;;34.90;15.85;;;;;;;;;;5094846;28;20032;-71
2022/01/07 06:21:34;;;;;;;59.60;26.20;;;;;;;;;;5094860;28;20370;-64
2022/01/07 06:23:59;;;;;;;77.72;33.35;;;;;;;;;;5094772;28;20036;-64
2022/01/07 06:26:25;;;;;;;71.70;30.70;;;;;;;;;;5076513;28;20044;-64
2022/01/07 06:28:51;;;;;;;72.53;30.08;;;;;;;;;;5094691;28;20096;-65
2022/01/07 06:31:17;;;;;;;43.55;22.40;;;;;;;;;;5094900;28;20040;-65
2022/01/07 06:33:42;;;;;;;49.33;23.83;;;;;;;;;;5094835;28;20344;-64
2022/01/07 06:36:08;;;;;;;40.17;21.95;;;;;;;;;;5094293;28;20520;-63
2022/01/07 06:38:33;;;;;;;38.05;21.85;;;;;;;;;;5094562;28;20490;-65
2022/01/07 06:40:59;;;;;;;35.72;20.98;;;;;;;;;;5076521;28;20044;-65
2022/01/07 06:43:24;;;;;;;38.00;21.65;;;;;;;;;;5094374;28;20032;-64
2022/01/07 06:45:50;;;;;;;41.67;23.05;;;;;;;;;;5094121;28;20537;-64
2022/01/07 06:48:15;;;;;;;56.72;30.77;;;;;;;;;;5094172;28;20024;-63
2022/01/07 06:50:41;;;;;;;54.90;27.42;;;;;;;;;;5094277;28;20268;-63
2022/01/07 06:53:07;;;;;;;95.50;46.72;;;;;;;;;;5093572;28;20028;-63
2022/01/07 06:55:33;;;;;;;59.97;31.05;;;;;;;;;;5094089;28;20036;-63
2022/01/07 06:57:58;;;;;;;69.97;33.22;;;;;;;;;;5076215;28;20032;-63
2022/01/07 07:00:24;;;;;;;71.32;37.70;;;;;;;;;;5094117;28;20051;-63
2022/01/07 07:02:50;;;;;;;60.80;29.65;;;;;;;;;;5093852;28;20390;-64
2022/01/07 07:05:15;;;;;;;58.17;29.33;;;;;;;;;;5093851;28;20044;-63
2022/01/07 07:07:41;;;;;;;67.57;35.55;;;;;;;;;;5075773;28;20531;-64
2022/01/07 07:10:07;;;;;;;64.60;34.92;;;;;;;;;;5094162;28;20043;-63
2022/01/07 07:12:32;;;;;;;79.30;40.60;;;;;;;;;;5093955;28;20385;-64
2022/01/07 07:14:58;;;;;;;80.18;37.85;;;;;;;;;;5094156;28;20047;-64
2022/01/07 07:17:24;;;;;;;75.47;37.17;;;;;;;;;;5090026;28;20039;-71
2022/01/07 07:19:50;;;;;;;70.78;35.33;;;;;;;;;;5093909;28;20035;-71
2022/01/07 07:22:15;;;;;;;57.97;27.45;;;;;;;;;;5093670;28;20378;-71
2022/01/07 07:24:41;;;;;;;62.33;30.33;;;;;;;;;;5075649;28;20383;-71
2022/01/07 07:27:06;;;;;;;69.38;33.40;;;;;;;;;;5093585;28;20042;-71
2022/01/07 07:29:32;;;;;;;66.20;31.65;;;;;;;;;;5093922;28;20046;-71
2022/01/07 07:31:59;;;;;;;70.13;34.00;;;;;;;;;;5093627;28;20032;-71
2022/01/07 07:36:59;;;;;;;97.15;45.33;;;;;;;;;;5093796;28;20036;-71
2022/01/07 07:39:25;;;;;;;91.75;47.22;;;;;;;;;;5093817;28;20039;-71
2022/01/07 07:41:50;;;;;;;92.82;45.45;;;;;;;;;;5093680;28;20040;-71
2022/01/07 07:44:16;;;;;;;89.75;41.78;;;;;;;;;;5093744;28;20025;-71
2022/01/07 07:46:41;;;;;;;90.30;42.95;;;;;;;;;;5093556;28;20036;-71
2022/01/07 07:49:07;;;;;;;91.07;47.90;;;;;;;;;;5093263;28;20436;-71
2022/01/07 07:51:33;;;;;;;95.60;50.53;;;;;;;;;;5093350;28;20082;-71
2022/01/07 07:53:59;;;;;;;89.75;45.13;;;;;;;;;;5093525;28;20028;-71
2022/01/07 07:56:26;;;;;;;80.78;39.75;;;;;;;;;;5093500;28;20037;-72
2022/01/07 07:58:52;;;;;;;75.97;38.05;;;;;;;;;;5093469;28;20036;-71
2022/01/07 08:01:21;;;;;;;75.50;38.40;;;;;;;;;;5093240;28;20085;-71
2022/01/07 08:03:46;;;;;;;70.97;35.40;;;;;;;;;;5093151;28;20478;-71
2022/01/07 08:06:12;;;;;;;92.18;43.55;;;;;;;;;;5095480;28;20044;-71
2022/01/07 08:08:38;;;;;;;91.90;47.05;;;;;;;;;;5097303;28;20032;-71
2022/01/07 08:11:07;;;;;;;86.07;42.22;;;;;;;;;;5097435;28;20036;-71
2022/01/07 08:16:19;;;;;;;69.60;37.85;;;;;;;;;;5097598;28;20046;-72
2022/01/07 08:18:47;;;;;;;67.10;36.00;;;;;;;;;;5097269;28;20028;-72
2022/01/07 08:21:12;;;;;;;68.40;38.28;;;;;;;;;;5097293;28;20486;-71
2022/01/07 08:23:38;;;;;;;69.60;36.28;;;;;;;;;;5097230;28;20047;-71
2022/01/07 08:26:07;;;;;;;79.13;30.15;;;;;;;;;;5097110;28;20033;-71
2022/01/07 08:28:38;;;;;;;61.42;29.98;;;;;;;;;;5096402;28;20028;-69
2022/01/07 08:36:19;;;;;;;44.70;23.33;;;;;;;;;;5096396;28;20044;-69
2022/01/07 08:38:45;;;;;;;39.83;21.88;;;;;;;;;;5096632;28;20036;-69
2022/01/07 08:41:11;;;;;;;45.55;22.48;;;;;;;;;;5096757;28;20036;-69
2022/01/07 08:43:37;;;;;;;50.78;26.67;;;;;;;;;;5096731;28;20031;-69
2022/01/07 08:46:04;;;;;;;50.53;24.98;;;;;;;;;;5096512;28;20093;-69
2022/01/07 08:48:30;;;;;;;73.50;43.47;;;;;;;;;;5096303;28;20035;-69
2022/01/07 08:50:55;;;;;;;50.67;27.50;;;;;;;;;;5096371;28;20081;-69
2022/01/07 08:53:21;;;;;;;40.30;22.67;;;;;;;;;;5096195;28;20028;-69
2022/01/07 08:55:47;;;;;;;245.20;85.25;;;;;;;;;;5096396;28;20047;-69
2022/01/07 08:58:12;;;;;;;1145.45;539.33;;;;;;;;;;5096272;28;20177;-70
2022/01/07 09:00:38;;;;;;;476.42;195.25;;;;;;;;;;5096230;28;20508;-70
2022/01/07 09:03:03;;;;;;;268.33;104.30;;;;;;;;;;5096238;28;20089;-70
2022/01/07 09:05:29;;;;;;;186.52;76.75;;;;;;;;;;5096222;28;20043;-70
2022/01/07 09:07:54;;;;;;;125.28;53.50;;;;;;;;;;5096059;28;20028;-70
2022/01/07 09:10:20;;;;;;;123.60;51.80;;;;;;;;;;5096139;28;20081;-70
2022/01/07 09:12:46;;;;;;;249.73;97.28;;;;;;;;;;5095985;28;20090;-70
2022/01/07 09:15:12;;;;;;;198.23;79.82;;;;;;;;;;5095995;28;20077;-70
2022/01/07 09:17:38;;;;;;;119.47;51.28;;;;;;;;;;5095007;28;20440;-69
2022/01/07 09:20:04;;;;;;;63.03;30.70;;;;;;;;;;5096228;28;20040;-70
2022/01/07 09:22:29;;;;;;;61.10;29.10;;;;;;;;;;5095912;28;20024;-70
2022/01/07 09:24:55;;;;;;;40.85;18.98;;;;;;;;;;5095850;28;20032;-70
2022/01/07 09:27:20;;;;;;;32.72;16.52;;;;;;;;;;5095598;28;20020;-70
2022/01/07 09:29:46;;;;;;;34.55;15.23;;;;;;;;;;5095712;28;20032;-70
2022/01/07 09:32:11;;;;;;;43.13;17.58;;;;;;;;;;5095692;28;20028;-70
2022/01/07 09:34:37;;;;;;;65.07;22.85;;;;;;;;;;5095298;28;20028;-69
2022/01/07 09:37:03;;;;;;;41.08;16.85;;;;;;;;;;5095598;28;20381;-70
2022/01/07 09:39:29;;;;;;;26.77;13.40;;;;;;;;;;5095524;28;20034;-70
2022/01/07 09:41:54;;;;;;;23.73;13.90;;;;;;;;;;5095510;28;20385;-70
2022/01/07 09:44:20;;;;;;;27.13;14.90;;;;;;;;;;5095570;28;20032;-70
2022/01/07 09:46:45;;;;;;;26.17;14.38;;;;;;;;;;5095383;28;20024;-70
2022/01/07 09:49:11;;;;;;;28.45;14.80;;;;;;;;;;5095260;28;20386;-70
2022/01/07 09:51:37;;;;;;;36.15;18.55;;;;;;;;;;5095225;28;20074;-70
2022/01/07 09:54:03;;;;;;;32.25;16.27;;;;;;;;;;5095314;28;20440;-70
2022/01/07 09:56:28;;;;;;;34.70;17.40;;;;;;;;;;5095241;28;20036;-70
2022/01/07 09:58:54;;;;;;;44.03;16.92;;;;;;;;;;5095100;28;20081;-69
2022/01/07 10:01:21;;;;;;;30.17;16.02;;;;;;;;;;5095086;28;20039;-69
2022/01/07 10:03:47;;;;;;;32.15;16.92;;;;;;;;;;5095015;28;20515;-69
2022/01/07 10:06:15;;;;;;;31.45;15.48;;;;;;;;;;5094831;28;20040;-69
2022/01/07 10:08:41;;;;;;;33.55;15.93;;;;;;;;;;5094948;28;20039;-70
2022/01/07 10:11:18;;;;;;;24.10;11.88;;;;;;;;;;5094686;28;20417;-70
2022/01/07 10:13:47;;;;;;;27.85;12.85;;;;;;;;;;5095113;28;20050;-70
2022/01/07 10:16:20;;;;;;;24.15;12.32;;;;;;;;;;5094968;28;20030;-70
2022/01/07 10:18:47;;;;;;;21.35;10.40;;;;;;;;;;5094702;28;20048;-70
2022/01/07 10:21:14;;;;;;;17.45;9.50;;;;;;;;;;5094634;28;20024;-72
2022/01/07 10:23:40;;;;;;;19.98;9.25;;;;;;;;;;5094723;28;20040;-72
2022/01/07 10:26:11;;;;;;;18.00;9.18;;;;;;;;;;5094901;28;20032;-72
2022/01/07 10:28:37;;;;;;;17.60;8.90;;;;;;;;;;5093796;28;20048;-72
2022/01/07 10:31:03;;;;;;;18.23;9.48;;;;;;;;;;5094573;28;20024;-72
2022/01/07 10:33:29;;;;;;;16.70;9.70;;;;;;;;;;5094755;28;20490;-72
2022/01/07 10:36:13;;;;;;;16.00;8.93;;;;;;;;;;5094140;28;20506;-69
2022/01/07 10:38:45;;;;;;;14.90;8.48;;;;;;;;;;5094722;28;20043;-69
2022/01/07 10:41:12;;;;;;;16.10;8.00;;;;;;;;;;5094386;28;20043;-69
2022/01/07 10:43:37;;;;;;;15.10;8.38;;;;;;;;;;5094478;28;20069;-69
2022/01/07 10:46:10;;;;;;;16.20;8.82;;;;;;;;;;5094361;28;20134;-69
2022/01/07 10:48:38;;;;;;;17.85;9.35;;;;;;;;;;5094565;28;20040;-70
2022/01/07 10:51:08;;;;;;;19.60;8.55;;;;;;;;;;5094527;28;20036;-72
2022/01/07 10:53:34;;;;;;;15.88;7.85;;;;;;;;;;5094409;28;20088;-69
2022/01/07 10:56:27;;;;;;;14.68;8.25;;;;;;;;;;5094597;28;20016;-69
2022/01/07 10:58:55;;;;;;;14.90;8.65;;;;;;;;;;5052131;28;20048;-67
2022/01/07 11:01:20;;;;;;;14.30;8.07;;;;;;;;;;5094283;28;20459;-69
2022/01/07 11:03:49;;;;;;;11.60;7.25;;;;;;;;;;5094223;28;20043;-68
2022/01/07 11:06:15;;;;;;;15.18;8.00;;;;;;;;;;5093493;28;20028;-68
2022/01/07 11:08:41;;;;;;;16.27;10.18;;;;;;;;;;5090386;28;20043;-59
2022/01/07 11:11:08;;;;;;;13.95;7.90;;;;;;;;;;5089120;28;20368;-59
2022/01/07 11:13:34;;;;;;;11.75;7.00;;;;;;;;;;5093783;28;20383;-59
2022/01/07 11:16:00;;;;;;;16.10;8.63;;;;;;;;;;5093959;28;20028;-60
2022/01/07 11:18:26;;;;;;;13.63;8.00;;;;;;;;;;5094232;28;20201;-61
2022/01/07 11:20:51;;;;;;;12.55;7.53;;;;;;;;;;5093407;28;20063;-62
2022/01/07 11:23:16;;;;;;;14.52;7.50;;;;;;;;;;5088903;28;20032;-69
2022/01/07 11:25:42;;;;;;;12.07;6.97;;;;;;;;;;5093952;28;20521;-69
2022/01/07 11:28:16;;;;;;;12.32;7.15;;;;;;;;;;5093738;28;20417;-69
2022/01/07 11:30:41;;;;;;;13.02;7.07;;;;;;;;;;5094015;28;20075;-69
2022/01/07 11:33:18;;;;;;;12.38;7.20;;;;;;;;;;5093792;28;20068;-69
2022/01/07 11:35:45;;;;;;;12.13;7.20;;;;;;;;;;5093026;28;20052;-69
2022/01/07 11:38:30;;;;;;;12.77;7.78;;;;;;;;;;5093653;28;20032;-70
2022/01/07 11:40:56;;;;;;;13.30;7.45;;;;;;;;;;5093105;28;20058;-69
2022/01/07 11:43:21;;;;;;;11.13;6.57;;;;;;;;;;5093519;28;20020;-71
2022/01/07 11:45:47;;;;;;;17.48;8.10;;;;;;;;;;5092628;28;20398;-71
2022/01/07 11:48:13;;;;;;;13.60;6.97;;;;;;;;;;5093446;28;20035;-71
2022/01/07 11:51:07;;;;;;;12.05;7.00;;;;;;;;;;5075454;28;20032;-71
2022/01/07 11:53:39;;;;;;;14.18;6.88;;;;;;;;;;5092416;28;20086;-71
2022/01/07 11:56:05;;;;;;;10.77;5.97;;;;;;;;;;5092236;28;20028;-71
2022/01/07 11:58:44;;;;;;;14.00;7.60;;;;;;;;;;5093252;28;20035;-71
2022/01/07 12:01:26;;;;;;;13.32;6.90;;;;;;;;;;5093020;28;20496;-71
2022/01/07 12:03:56;;;;;;;10.77;6.05;;;;;;;;;;5093452;28;20048;-71
2022/01/07 12:06:28;;;;;;;10.68;6.78;;;;;;;;;;5093168;28;20140;-71
2022/01/07 12:09:00;;;;;;;11.93;7.28;;;;;;;;;;5093067;28;20047;-71
2022/01/07 12:11:33;;;;;;;13.00;6.78;;;;;;;;;;5092994;28;20037;-71
2022/01/07 12:14:00;;;;;;;13.35;7.63;;;;;;;;;;5093214;28;20097;-71
2022/01/07 12:16:27;;;;;;;13.98;7.43;;;;;;;;;;5093043;28;20016;-71
2022/01/07 12:19:11;;;;;;;14.73;7.63;;;;;;;;;;5092980;28;20131;-71
2022/01/07 12:21:37;;;;;;;14.52;7.10;;;;;;;;;;5092899;28;20040;-71
2022/01/07 12:24:06;;;;;;;13.60;7.53;;;;;;;;;;5092922;28;20111;-71
2022/01/07 12:26:32;;;;;;;12.48;7.60;;;;;;;;;;5075019;28;20044;-71
2022/01/07 12:28:58;;;;;;;12.15;6.93;;;;;;;;;;5092854;28;20031;-71
2022/01/07 12:31:23;;;;;;;13.32;7.40;;;;;;;;;;5092822;28;20036;-71
2022/01/07 12:33:52;;;;;;;13.90;7.88;;;;;;;;;;5092831;28;20028;-71
2022/01/07 12:36:25;;;;;;;10.32;5.18;;;;;;;;;;5092702;28;20426;-71
2022/01/07 12:39:00;;;;;;;13.38;6.85;;;;;;;;;;5092901;28;20048;-71
2022/01/07 12:41:25;;;;;;;14.20;7.28;;;;;;;;;;5092843;28;20044;-71
2022/01/07 12:44:03;;;;;;;13.77;7.68;;;;;;;;;;5092719;28;20039;-71
2022/01/07 12:46:29;;;;;;;27.33;12.13;;;;;;;;;;5092757;28;20488;-71
2022/01/07 12:48:54;;;;;;;21.02;10.40;;;;;;;;;;5092721;28;20036;-71
2022/01/07 12:51:20;;;;;;;12.38;7.35;;;;;;;;;;5093554;28;20549;-71
2022/01/07 12:53:56;;;;;;;14.80;8.07;;;;;;;;;;5096385;28;20119;-71
2022/01/07 12:56:28;;;;;;;13.75;7.30;;;;;;;;;;5096424;28;20071;-71
2022/01/07 12:58:54;;;;;;;14.55;8.38;;;;;;;;;;5096377;28;20394;-71
2022/01/07 13:01:27;;;;;;;18.80;10.95;;;;;;;;;;5096463;28;20036;-71
2022/01/07 13:04:02;;;;;;;23.65;12.23;;;;;;;;;;5096232;28;20050;-71
2022/01/07 13:06:28;;;;;;;20.85;12.63;;;;;;;;;;5096196;28;20083;-71
2022/01/07 13:08:53;;;;;;;18.70;11.75;;;;;;;;;;5096268;28;20036;-71
2022/01/07 13:11:19;;;;;;;23.25;13.10;;;;;;;;;;5096156;28;20547;-71
2022/01/07 13:13:44;;;;;;;23.08;12.00;;;;;;;;;;5095994;28;20466;-71
2022/01/07 13:16:10;;;;;;;18.45;11.00;;;;;;;;;;5095945;28;20039;-71
2022/01/07 13:18:36;;;;;;;21.20;12.00;;;;;;;;;;5096007;28;20031;-72
2022/01/07 13:21:04;;;;;;;23.45;12.68;;;;;;;;;;5096069;28;20036;-71
2022/01/07 13:23:35;;;;;;;23.45;12.85;;;;;;;;;;5095680;28;20493;-71
2022/01/07 13:26:01;;;;;;;22.55;12.70;;;;;;;;;;5095914;28;20123;-71
2022/01/07 13:28:35;;;;;;;21.10;10.77;;;;;;;;;;5095783;28;20127;-71
2022/01/07 13:31:01;;;;;;;20.15;10.40;;;;;;;;;;5095773;28;20062;-71
2022/01/07 13:33:28;;;;;;;21.33;11.07;;;;;;;;;;5095612;28;20028;-71
2022/01/07 13:35:59;;;;;;;22.75;12.23;;;;;;;;;;5095258;28;20371;-71
2022/01/07 13:38:24;;;;;;;;;;;;;;;;;;5078036;28;20127;-71
2022/01/07 13:41:01;;;;;;;145.73;65.25;;;;;;;;;;5095576;28;19958;-71
2022/01/07 13:43:30;;;;;;;93.88;43.35;;;;;;;;;;5095504;28;20061;-71
2022/01/07 13:46:06;;;;;;;82.85;41.90;;;;;;;;;;5095539;28;20110;-71
2022/01/07 13:48:31;;;;;;;43.45;22.38;;;;;;;;;;5077186;28;20218;-71
2022/01/07 13:51:08;;;;;;;92.70;52.78;;;;;;;;;;5095069;28;20107;-71
2022/01/07 13:53:33;;;;;;;111.38;62.47;;;;;;;;;;5095330;28;20166;-71
2022/01/07 13:56:06;;;;;;;120.93;71.57;;;;;;;;;;5095299;28;20111;-71
2022/01/07 13:58:31;;;;;;;104.82;60.03;;;;;;;;;;5077042;28;20032;-71
2022/01/07 14:01:03;;;;;;;82.68;47.90;;;;;;;;;;5095060;28;20077;-71
2022/01/07 14:03:46;;;;;;;61.95;34.60;;;;;;;;;;5093821;28;20082;-71
2022/01/07 14:06:11;;;;;;;68.22;40.20;;;;;;;;;;5095175;28;20101;-71
2022/01/07 14:08:38;;;;;;;208.75;102.10;;;;;;;;;;5094936;28;20071;-71
2022/01/07 14:11:11;;;;;;;244.38;118.03;;;;;;;;;;5094947;28;20126;-71
2022/01/07 14:13:37;;;;;;;246.60;119.53;;;;;;;;;;5094767;28;20082;-71
2022/01/07 14:16:03;;;;;;;144.82;70.75;;;;;;;;;;5094864;28;20024;-71
2022/01/07 14:18:31;;;;;;;88.47;45.50;;;;;;;;;;5094778;28;20515;-71
2022/01/07 14:20:56;;;;;;;45.22;26.60;;;;;;;;;;5076634;28;20062;-71
2022/01/07 14:23:23;;;;;;;70.43;38.35;;;;;;;;;;5094602;28;20051;-71
2022/01/07 14:25:50;;;;;;;78.60;41.35;;;;;;;;;;5094771;28;20034;-71
2022/01/07 14:28:17;;;;;;;73.75;37.55;;;;;;;;;;5094439;28;20036;-71